createdAt,value
2019-01-31T00:02:54.247Z,99.90
2019-01-31T00:05:55.722Z,99.90
2019-01-31T00:09:25.316Z,99.90
2019-01-31T00:12:23.531Z,99.90
2019-01-31T00:15:49.241Z,99.90
2019-01-31T00:19:13.988Z,99.90
2019-01-31T00:22:42.785Z,99.90
2019-01-31T00:26:16.967Z,99.90
2019-01-31T00:29:24.804Z,99.90
2019-01-31T00:32:28.055Z,99.90
2019-01-31T00:36:18.976Z,99.90
2019-01-31T00:39:55.010Z,99.90
2019-01-31T00:43:28.696Z,99.90
2019-01-31T00:46:36.588Z,99.90
2019-01-31T00:49:59.075Z,99.90
2019-01-31T00:53:20.058Z,99.90
2019-01-31T00:57:00.326Z,99.90
2019-01-31T01:00:28.998Z,99.90
2019-01-31T01:03:41.815Z,99.90
2019-01-31T01:06:29.307Z,99.90
2019-01-31T01:10:04.983Z,99.90
2019-01-31T01:13:26.994Z,99.90
2019-01-31T01:16:24.725Z,99.90
2019-01-31T01:19:26.003Z,99.90
2019-01-31T01:23:01.235Z,99.90
2019-01-31T01:26:49.552Z,99.90
2019-01-31T01:29:59.325Z,99.90
2019-01-31T01:33:36.022Z,99.90
2019-01-31T01:36:21.586Z,99.90
2019-01-31T01:40:06.893Z,99.90
2019-01-31T01:43:19.244Z,99.90
2019-01-31T01:46:59.639Z,99.90
2019-01-31T01:50:11.869Z,99.90
2019-01-31T01:53:14.950Z,99.90
2019-01-31T01:56:52.793Z,99.90
2019-01-31T02:00:07.205Z,99.90
2019-01-31T02:03:34.086Z,99.90
2019-01-31T02:06:50.375Z,99.90
2019-01-31T02:10:02.120Z,99.90
2019-01-31T02:13:25.316Z,99.90
2019-01-31T02:16:35.020Z,99.90
2019-01-31T02:20:00.637Z,99.90
2019-01-31T02:23:34.052Z,99.90
2019-01-31T02:27:15.607Z,99.90
2019-01-31T02:30:27.148Z,99.90
2019-01-31T02:33:46.367Z,99.90
2019-01-31T02:36:59.444Z,99.90
2019-01-31T02:40:01.719Z,99.90
2019-01-31T02:42:51.089Z,99.90
2019-01-31T02:46:38.662Z,99.90
2019-01-31T02:50:04.427Z,99.90
2019-01-31T02:53:36.333Z,99.90
2019-01-31T02:56:44.068Z,99.90
2019-01-31T03:00:01.649Z,99.90
2019-01-31T03:02:42.975Z,99.90
2019-01-31T03:06:20.431Z,99.90
2019-01-31T03:09:57.688Z,99.90
2019-01-31T03:12:53.488Z,99.90
2019-01-31T03:15:38.366Z,99.90
2019-01-31T03:19:28.124Z,99.90
2019-01-31T03:22:48.886Z,99.90
2019-01-31T03:26:02.210Z,99.90
2019-01-31T03:29:40.746Z,99.90
2019-01-31T03:33:03.672Z,99.90
2019-01-31T03:36:10.837Z,99.90
2019-01-31T03:39:38.748Z,99.90
2019-01-31T03:43:35.752Z,99.90
2019-01-31T03:47:02.418Z,99.90
2019-01-31T03:50:06.868Z,99.90
2019-01-31T03:53:23.681Z,99.90
2019-01-31T03:57:00.837Z,99.90
2019-01-31T03:59:53.492Z,99.90
2019-01-31T04:03:05.720Z,99.90
2019-01-31T04:06:21.929Z,99.90
2019-01-31T04:08:50.029Z,99.90
2019-01-31T04:11:18.395Z,99.90
2019-01-31T04:13:46.644Z,99.90
2019-01-31T04:16:14.713Z,99.90
2019-01-31T04:18:42.943Z,99.90
2019-01-31T04:21:11.276Z,99.90
2019-01-31T04:23:39.310Z,99.90
2019-01-31T04:26:09.186Z,99.90
2019-01-31T04:28:38.443Z,99.90
2019-01-31T04:31:06.529Z,99.90
2019-01-31T04:33:35.782Z,99.90
2019-01-31T04:36:04.056Z,99.90
2019-01-31T04:38:32.214Z,99.90
2019-01-31T04:41:00.277Z,99.90
2019-01-31T04:43:28.379Z,99.90
2019-01-31T04:45:56.605Z,99.90
2019-01-31T04:48:24.796Z,99.90
2019-01-31T04:50:52.881Z,99.90
2019-01-31T04:53:21.497Z,99.90
2019-01-31T04:55:49.583Z,99.90
2019-01-31T04:58:18.839Z,99.90
2019-01-31T05:00:46.887Z,99.90
2019-01-31T05:03:14.939Z,99.90
2019-01-31T05:05:43.169Z,99.90
2019-01-31T05:08:11.274Z,99.90
2019-01-31T05:10:43.139Z,99.90
2019-01-31T05:13:09.615Z,99.90
2019-01-31T05:15:37.642Z,99.90
2019-01-31T05:18:05.828Z,99.90
2019-01-31T05:20:33.866Z,99.90
2019-01-31T05:23:01.873Z,99.90
2019-01-31T05:25:29.947Z,99.90
2019-01-31T05:27:58.082Z,99.90
2019-01-31T05:30:26.107Z,99.90
2019-01-31T05:32:54.169Z,99.90
2019-01-31T05:35:22.488Z,99.90
2019-01-31T05:37:50.558Z,99.90
2019-01-31T05:40:18.747Z,99.90
2019-01-31T05:42:46.858Z,99.90
2019-01-31T05:45:15.916Z,99.90
2019-01-31T05:47:43.956Z,99.90
2019-01-31T05:50:15.203Z,99.90
2019-01-31T05:52:43.328Z,99.90
2019-01-31T05:55:12.420Z,99.90
2019-01-31T05:57:40.730Z,99.90
2019-01-31T06:00:14.680Z,99.90
2019-01-31T06:02:42.814Z,99.90
2019-01-31T06:05:11.134Z,99.90
2019-01-31T06:07:39.164Z,99.90
2019-01-31T06:10:08.639Z,99.90
2019-01-31T06:12:36.771Z,99.90
2019-01-31T06:15:08.521Z,99.90
2019-01-31T06:17:36.695Z,99.90
2019-01-31T06:20:05.999Z,99.90
2019-01-31T06:22:34.177Z,99.90
2019-01-31T06:25:02.352Z,99.90
2019-01-31T06:27:30.457Z,99.90
2019-01-31T06:29:58.511Z,99.90
2019-01-31T06:32:26.540Z,99.90
2019-01-31T06:34:54.644Z,99.90
2019-01-31T06:37:22.844Z,99.90
2019-01-31T06:39:50.851Z,99.90
2019-01-31T06:42:19.160Z,99.90
2019-01-31T06:44:47.684Z,99.90
2019-01-31T06:47:15.794Z,99.90
2019-01-31T06:49:44.006Z,99.90
2019-01-31T06:52:12.016Z,99.90
2019-01-31T06:54:40.166Z,99.90
2019-01-31T06:57:08.214Z,99.90
2019-01-31T06:59:36.419Z,99.90
2019-01-31T07:02:04.765Z,99.90
2019-01-31T07:04:32.825Z,99.90
2019-01-31T07:07:01.043Z,99.90
2019-01-31T07:09:29.121Z,99.90
2019-01-31T07:11:57.194Z,99.90
2019-01-31T07:14:25.236Z,99.90
2019-01-31T07:16:53.446Z,99.90
2019-01-31T07:19:21.599Z,99.90
2019-01-31T07:21:50.751Z,99.90
2019-01-31T07:24:18.918Z,99.90
2019-01-31T07:26:47.293Z,99.90
2019-01-31T07:29:15.351Z,99.90
2019-01-31T07:31:44.360Z,99.90
2019-01-31T07:34:12.562Z,99.90
2019-01-31T07:36:40.660Z,99.90
2019-01-31T07:39:08.734Z,99.90
2019-01-31T07:41:41.470Z,99.90
2019-01-31T07:44:06.752Z,99.90
2019-01-31T07:46:34.855Z,99.90
2019-01-31T07:49:03.783Z,99.90
2019-01-31T07:51:31.943Z,99.90
2019-01-31T07:53:59.977Z,99.90
2019-01-31T07:56:28.039Z,99.90
2019-01-31T07:58:56.038Z,99.90
2019-01-31T08:01:24.077Z,99.90
2019-01-31T08:04:02.234Z,99.90
2019-01-31T08:06:21.984Z,99.90
2019-01-31T08:08:50.239Z,99.90
2019-01-31T08:11:18.395Z,99.90
2019-01-31T08:13:46.510Z,99.90
2019-01-31T08:16:14.496Z,99.90
2019-01-31T08:18:42.775Z,99.90
2019-01-31T08:21:10.843Z,99.90
2019-01-31T08:23:38.886Z,99.90
2019-01-31T08:26:07.044Z,99.90
2019-01-31T08:28:35.190Z,99.90
2019-01-31T08:31:03.719Z,99.90
2019-01-31T08:33:31.757Z,99.90
2019-01-31T08:35:59.935Z,99.90
2019-01-31T08:38:28.036Z,99.90
2019-01-31T08:40:56.122Z,99.90
2019-01-31T08:43:24.152Z,99.90
2019-01-31T08:45:52.186Z,99.90
2019-01-31T08:48:20.380Z,99.90
2019-01-31T08:50:48.522Z,99.90
2019-01-31T08:53:16.597Z,99.90
2019-01-31T08:55:47.464Z,99.90
2019-01-31T08:58:14.762Z,99.90
2019-01-31T09:00:42.937Z,99.90
2019-01-31T09:03:11.077Z,99.90
2019-01-31T09:05:39.113Z,99.90
2019-01-31T09:08:07.240Z,99.90
2019-01-31T09:10:39.309Z,99.90
2019-01-31T09:13:10.313Z,99.90
2019-01-31T09:15:39.512Z,99.90
2019-01-31T09:18:08.668Z,99.90
2019-01-31T09:21:49.748Z,99.90
2019-01-31T09:25:25.448Z,99.90
2019-01-31T09:28:22.200Z,99.90
2019-01-31T09:31:50.271Z,99.90
2019-01-31T09:35:05.767Z,99.90
2019-01-31T09:39:05.461Z,99.90
2019-01-31T09:42:48.958Z,99.90
2019-01-31T09:46:13.044Z,99.90
2019-01-31T09:49:37.266Z,99.90
2019-01-31T09:53:06.254Z,99.90
2019-01-31T09:56:23.173Z,99.90
2019-01-31T09:59:24.055Z,99.90
2019-01-31T10:03:26.928Z,99.90
2019-01-31T10:07:04.122Z,99.90
2019-01-31T10:10:44.600Z,99.90
2019-01-31T10:14:28.777Z,99.90
2019-01-31T10:18:09.361Z,99.90
2019-01-31T10:21:16.008Z,99.90
2019-01-31T10:24:37.565Z,99.90
2019-01-31T10:27:40.614Z,99.90
2019-01-31T10:30:59.078Z,99.90
2019-01-31T10:34:04.936Z,99.90
2019-01-31T10:37:53.100Z,99.90
2019-01-31T10:41:13.302Z,99.90
2019-01-31T10:44:38.101Z,99.90
2019-01-31T10:48:21.225Z,99.90
2019-01-31T10:51:41.645Z,99.90
2019-01-31T10:55:01.020Z,99.90
2019-01-31T10:59:00.349Z,99.90
2019-01-31T11:02:18.247Z,99.90
2019-01-31T11:05:53.753Z,99.90
2019-01-31T11:09:08.545Z,99.90
2019-01-31T11:12:38.222Z,99.90
2019-01-31T11:16:02.216Z,99.90
2019-01-31T11:19:14.633Z,99.90
2019-01-31T11:22:34.552Z,99.90
2019-01-31T11:26:10.668Z,99.90
2019-01-31T11:29:33.792Z,99.90
2019-01-31T11:33:05.593Z,99.90
2019-01-31T11:36:34.964Z,99.90
2019-01-31T11:40:05.678Z,99.90
2019-01-31T11:43:16.857Z,99.90
2019-01-31T11:46:27.399Z,99.90
2019-01-31T11:49:26.408Z,99.90
2019-01-31T11:53:10.618Z,99.90
2019-01-31T11:56:19.498Z,99.90
2019-01-31T11:58:49.604Z,99.90
2019-01-31T12:01:18.270Z,99.90
2019-01-31T12:03:55.798Z,99.90
2019-01-31T12:06:23.977Z,99.90
2019-01-31T12:08:51.997Z,99.90
2019-01-31T12:11:20.044Z,99.90
2019-01-31T12:13:48.255Z,99.90
2019-01-31T12:16:16.427Z,99.90
2019-01-31T12:18:44.729Z,99.90
2019-01-31T12:21:12.874Z,99.90
2019-01-31T12:23:41.982Z,99.90
2019-01-31T12:26:10.105Z,99.90
2019-01-31T12:28:38.215Z,99.90
2019-01-31T12:31:06.590Z,99.90
2019-01-31T12:33:34.680Z,99.90
2019-01-31T12:36:03.337Z,99.90
2019-01-31T12:38:36.836Z,99.90
2019-01-31T12:41:01.319Z,99.90
2019-01-31T12:43:35.154Z,99.90
2019-01-31T12:45:59.299Z,99.90
2019-01-31T12:48:27.305Z,99.90
2019-01-31T12:50:55.715Z,99.90
2019-01-31T12:53:23.959Z,99.90
2019-01-31T12:55:52.014Z,99.90
2019-01-31T12:58:20.803Z,99.90
2019-01-31T13:00:48.992Z,99.90
2019-01-31T13:03:17.018Z,99.90
2019-01-31T13:05:45.365Z,99.90
2019-01-31T13:08:13.621Z,99.90
2019-01-31T13:10:41.732Z,99.90
2019-01-31T13:13:10.834Z,99.90
2019-01-31T13:15:41.321Z,99.90
2019-01-31T13:18:09.809Z,99.90
2019-01-31T13:20:38.052Z,99.90
2019-01-31T13:23:06.359Z,99.90
2019-01-31T13:25:35.405Z,99.90
2019-01-31T13:28:04.016Z,99.90
2019-01-31T13:30:32.069Z,99.90
2019-01-31T13:33:00.357Z,99.90
2019-01-31T13:35:28.568Z,99.90
2019-01-31T13:37:56.596Z,99.90
2019-01-31T13:40:26.330Z,99.90
2019-01-31T13:42:56.588Z,99.90
2019-01-31T13:45:28.450Z,99.90
2019-01-31T13:48:02.559Z,99.90
2019-01-31T13:50:30.873Z,99.90
2019-01-31T13:53:00.503Z,99.90
2019-01-31T13:55:30.996Z,99.90
2019-01-31T13:58:00.243Z,98.40
2019-01-31T14:00:28.279Z,99.90
2019-01-31T14:02:56.629Z,98.50
2019-01-31T14:05:24.946Z,97.70
2019-01-31T14:07:54.020Z,98.70
2019-01-31T14:10:26.341Z,97.60
2019-01-31T14:12:54.534Z,96.90
2019-01-31T14:15:33.620Z,97.00
2019-01-31T14:17:57.862Z,94.20
2019-01-31T14:20:27.482Z,96.50
2019-01-31T14:22:55.914Z,96.90
2019-01-31T14:25:24.639Z,96.20
2019-01-31T14:27:52.889Z,95.50
2019-01-31T14:30:35.885Z,96.90
2019-01-31T14:33:12.321Z,95.70
2019-01-31T14:35:40.892Z,96.80
2019-01-31T14:38:09.161Z,94.90
2019-01-31T14:40:37.321Z,94.40
2019-01-31T14:43:05.505Z,97.20
2019-01-31T14:45:33.607Z,95.70
2019-01-31T14:48:02.612Z,94.10
2019-01-31T14:50:32.982Z,94.90
2019-01-31T14:53:01.081Z,95.30
2019-01-31T14:55:29.678Z,95.50
2019-01-31T14:57:57.785Z,93.50
2019-01-31T15:00:29.021Z,95.20
2019-01-31T15:02:57.163Z,95.10
2019-01-31T15:05:26.394Z,95.10
2019-01-31T15:07:56.147Z,95.50
2019-01-31T15:10:26.706Z,95.20
2019-01-31T15:12:55.120Z,96.30
2019-01-31T15:15:23.189Z,96.20
2019-01-31T15:17:53.166Z,96.30
2019-01-31T15:20:37.973Z,96.80
2019-01-31T15:23:04.633Z,97.20
2019-01-31T15:25:32.745Z,97.50
2019-01-31T15:28:00.799Z,97.10
2019-01-31T15:30:31.748Z,97.40
2019-01-31T15:33:01.170Z,97.50
2019-01-31T15:35:29.323Z,97.10
2019-01-31T15:37:57.643Z,97.20
2019-01-31T15:40:32.955Z,97.00
2019-01-31T15:43:03.052Z,97.50
2019-01-31T15:45:31.224Z,98.10
2019-01-31T15:47:59.202Z,97.30
2019-01-31T15:50:28.144Z,97.70
2019-01-31T15:52:56.464Z,97.30
2019-01-31T15:55:25.204Z,97.40
2019-01-31T15:57:53.497Z,97.60
2019-01-31T16:00:42.117Z,97.00
2019-01-31T16:03:13.152Z,96.90
2019-01-31T16:05:41.890Z,97.00
2019-01-31T16:08:10.355Z,97.70
2019-01-31T16:10:38.400Z,98.20
2019-01-31T16:13:07.415Z,98.50
2019-01-31T16:15:35.846Z,98.50
2019-01-31T16:18:06.354Z,99.20
2019-01-31T16:20:34.379Z,99.00
2019-01-31T16:23:04.126Z,99.10
2019-01-31T16:25:32.180Z,99.20
2019-01-31T16:28:00.453Z,99.90
2019-01-31T16:30:28.906Z,99.90
2019-01-31T16:32:57.058Z,99.90
2019-01-31T16:35:25.215Z,99.90
2019-01-31T16:37:53.369Z,99.70
2019-01-31T16:40:23.096Z,99.90
2019-01-31T16:42:51.473Z,99.90
2019-01-31T16:45:19.657Z,99.90
2019-01-31T16:47:48.146Z,99.90
2019-01-31T16:50:16.997Z,99.90
2019-01-31T16:52:45.578Z,99.90
2019-01-31T16:55:16.658Z,99.90
2019-01-31T16:57:45.583Z,99.90
2019-01-31T17:00:21.654Z,99.90
2019-01-31T17:02:50.232Z,99.90
2019-01-31T17:05:21.587Z,99.90
2019-01-31T17:07:50.064Z,99.90
2019-01-31T17:10:18.244Z,99.90
2019-01-31T17:12:46.295Z,99.90
2019-01-31T17:15:18.281Z,99.90
2019-01-31T17:17:45.863Z,99.90
2019-01-31T17:20:21.933Z,99.90
2019-01-31T17:22:50.009Z,99.90
2019-01-31T17:25:18.018Z,99.90
2019-01-31T17:27:46.208Z,99.90
2019-01-31T17:30:18.478Z,99.90
2019-01-31T17:32:46.517Z,99.90
2019-01-31T17:35:14.898Z,99.90
2019-01-31T17:37:42.991Z,99.90
2019-01-31T17:40:22.149Z,99.90
2019-01-31T17:42:50.224Z,99.90
2019-01-31T17:45:29.894Z,99.90
2019-01-31T17:47:49.439Z,99.90
2019-01-31T17:50:17.661Z,99.90
2019-01-31T17:52:45.761Z,99.90
2019-01-31T17:55:17.138Z,99.90
2019-01-31T17:57:45.185Z,99.90
2019-01-31T18:00:32.019Z,99.90
2019-01-31T18:03:01.238Z,99.90
2019-01-31T18:05:29.513Z,99.90
2019-01-31T18:07:57.769Z,99.90
2019-01-31T18:10:25.894Z,99.90
2019-01-31T18:12:53.998Z,99.90
2019-01-31T18:15:22.044Z,99.90
2019-01-31T18:17:50.479Z,99.90
2019-01-31T18:20:18.684Z,99.90
2019-01-31T18:22:49.054Z,99.90
2019-01-31T18:25:17.120Z,99.90
2019-01-31T18:27:46.763Z,99.90
2019-01-31T18:30:21.534Z,99.90
2019-01-31T18:32:49.757Z,99.90
2019-01-31T18:35:17.762Z,99.90
2019-01-31T18:37:46.070Z,99.90
2019-01-31T18:40:24.351Z,99.90
2019-01-31T18:42:52.743Z,99.90
2019-01-31T18:45:24.420Z,99.90
2019-01-31T18:47:54.025Z,99.90
2019-01-31T18:50:28.324Z,99.90
2019-01-31T18:52:57.409Z,99.90
2019-01-31T18:55:26.500Z,99.90
2019-01-31T18:57:54.558Z,99.90
2019-01-31T19:00:29.916Z,99.90
2019-01-31T19:02:58.145Z,99.90
2019-01-31T19:05:27.978Z,99.90
2019-01-31T19:07:56.115Z,99.90
2019-01-31T19:10:25.138Z,99.90
2019-01-31T19:12:54.600Z,99.90
2019-01-31T19:15:24.275Z,99.90
2019-01-31T19:18:04.490Z,99.90
2019-01-31T19:20:26.832Z,99.90
2019-01-31T19:22:58.194Z,99.90
2019-01-31T19:25:26.727Z,99.90
2019-01-31T19:27:54.887Z,99.90
2019-01-31T19:30:32.578Z,99.90
2019-01-31T19:33:01.270Z,99.90
2019-01-31T19:35:29.263Z,99.90
2019-01-31T19:38:02.063Z,99.90
2019-01-31T19:40:31.045Z,99.90
2019-01-31T19:42:59.524Z,99.90
2019-01-31T19:45:42.537Z,99.90
2019-01-31T19:48:11.312Z,99.90
2019-01-31T19:50:39.690Z,99.90
2019-01-31T19:53:07.946Z,99.90
2019-01-31T19:55:38.113Z,99.90
2019-01-31T19:58:06.951Z,99.90
2019-01-31T20:00:35.584Z,99.90
2019-01-31T20:03:05.324Z,99.90
2019-01-31T20:05:33.394Z,99.90
2019-01-31T20:08:01.487Z,99.90
2019-01-31T20:10:30.477Z,99.90
2019-01-31T20:12:58.935Z,99.90
2019-01-31T20:15:27.984Z,99.90
2019-01-31T20:17:56.328Z,99.90
2019-01-31T20:20:26.289Z,99.90
2019-01-31T20:22:56.865Z,99.90
2019-01-31T20:25:25.655Z,99.90
2019-01-31T20:27:53.846Z,99.90
2019-01-31T20:30:27.941Z,99.90
2019-01-31T20:32:58.079Z,99.90
2019-01-31T20:35:26.490Z,99.90
2019-01-31T20:37:55.032Z,99.90
2019-01-31T20:40:27.789Z,99.90
2019-01-31T20:42:57.013Z,99.90
2019-01-31T20:45:44.966Z,99.90
2019-01-31T20:48:13.124Z,99.90
2019-01-31T20:50:42.535Z,99.90
2019-01-31T20:53:10.986Z,99.90
2019-01-31T20:55:39.312Z,99.90
2019-01-31T20:58:07.566Z,99.90
2019-01-31T21:00:44.529Z,99.90
2019-01-31T21:03:12.994Z,99.90
2019-01-31T21:05:42.066Z,99.90
2019-01-31T21:08:12.356Z,99.90
2019-01-31T21:10:41.908Z,99.90
2019-01-31T21:13:10.481Z,99.90
2019-01-31T21:15:41.204Z,99.90
2019-01-31T21:18:10.464Z,99.90
2019-01-31T21:20:39.087Z,99.90
2019-01-31T21:23:08.529Z,99.90
2019-01-31T21:25:36.670Z,99.90
2019-01-31T21:28:04.984Z,99.90
2019-01-31T21:30:39.177Z,99.90
2019-01-31T21:33:07.446Z,99.90
2019-01-31T21:35:36.147Z,99.90
2019-01-31T21:38:07.500Z,99.90
2019-01-31T21:40:37.949Z,99.90
2019-01-31T21:43:06.806Z,99.90
2019-01-31T21:45:35.691Z,99.90
2019-01-31T21:48:08.960Z,99.90
2019-01-31T21:50:37.125Z,99.90
2019-01-31T21:53:05.915Z,99.90
2019-01-31T21:55:35.628Z,99.90
2019-01-31T21:58:04.925Z,99.90
2019-01-31T22:00:34.337Z,99.90
2019-01-31T22:03:04.284Z,99.90
2019-01-31T22:05:32.422Z,99.90
2019-01-31T22:11:09.412Z,99.90
2019-01-31T22:13:51.295Z,99.90
2019-01-31T22:16:19.740Z,99.90
2019-01-31T22:19:07.315Z,99.90
2019-01-31T22:21:54.796Z,99.90
2019-01-31T22:24:36.915Z,99.90
2019-01-31T22:30:31.933Z,99.90
2019-01-31T22:33:19.707Z,99.90
2019-01-31T22:36:09.520Z,99.90
2019-01-31T22:38:38.131Z,99.90
2019-01-31T22:44:54.215Z,99.90
2019-01-31T22:47:36.363Z,99.90
2019-01-31T22:50:27.396Z,99.90
2019-01-31T22:52:55.572Z,99.90
2019-01-31T22:55:42.950Z,99.90
2019-01-31T22:58:25.442Z,99.90
2019-01-31T23:01:44.238Z,99.90
2019-01-31T23:04:26.186Z,99.90
2019-01-31T23:07:14.045Z,99.90
2019-01-31T23:09:55.378Z,99.90
2019-01-31T23:12:43.166Z,99.90
2019-01-31T23:15:29.886Z,99.90
2019-01-31T23:18:10.459Z,99.90
2019-01-31T23:20:58.140Z,99.90
2019-01-31T23:23:38.682Z,99.90
2019-01-31T23:26:44.239Z,99.90
2019-01-31T23:29:31.131Z,99.90
2019-01-31T23:32:11.826Z,99.90
2019-01-31T23:34:59.585Z,99.90
2019-01-31T23:38:06.108Z,99.90
2019-01-31T23:40:47.319Z,99.90
2019-01-31T23:43:35.128Z,99.90
2019-01-31T23:46:26.561Z,99.90
2019-01-31T23:49:06.832Z,99.90
2019-01-31T23:51:54.656Z,99.90
2019-01-31T23:54:42.327Z,99.90
2019-01-31T23:57:29.840Z,99.90
2019-01-31T23:59:57.945Z,99.90
